createdAt,value
2018-05-14T00:00:46.213Z,4.60
2018-05-14T00:03:13.597Z,4.17
2018-05-14T00:05:41.002Z,3.83
2018-05-14T00:08:08.391Z,3.60
2018-05-14T00:10:35.811Z,3.53
2018-05-14T00:13:03.204Z,3.20
2018-05-14T00:15:30.590Z,3.20
2018-05-14T00:17:57.971Z,3.60
2018-05-14T00:20:25.455Z,4.37
2018-05-14T00:22:52.835Z,5.33
2018-05-14T00:25:20.221Z,4.70
2018-05-14T00:27:47.705Z,5.00
2018-05-14T00:30:14.979Z,6.40
2018-05-14T00:32:42.368Z,7.93
2018-05-14T00:35:09.831Z,5.90
2018-05-14T00:37:37.207Z,7.30
2018-05-14T00:40:04.631Z,7.10
2018-05-14T00:42:32.003Z,7.33
2018-05-14T00:44:59.398Z,8.23
2018-05-14T00:47:26.831Z,6.50
2018-05-14T00:49:54.205Z,8.17
2018-05-14T00:52:21.592Z,8.37
2018-05-14T00:55:00.858Z,6.43
2018-05-14T00:57:28.227Z,7.17
2018-05-14T00:59:55.610Z,6.77
2018-05-14T01:02:23.012Z,7.97
2018-05-14T01:04:50.395Z,8.53
2018-05-14T01:07:17.787Z,7.47
2018-05-14T01:09:45.171Z,6.37
2018-05-14T01:12:12.569Z,6.77
2018-05-14T01:14:39.943Z,7.60
2018-05-14T01:17:07.337Z,7.53
2018-05-14T01:19:34.714Z,6.40
2018-05-14T01:22:02.091Z,5.93
2018-05-14T01:24:29.463Z,7.00
2018-05-14T01:26:56.860Z,7.37
2018-05-14T01:29:24.236Z,6.80
2018-05-14T01:31:51.628Z,7.47
2018-05-14T01:34:19.018Z,7.30
2018-05-14T01:36:46.417Z,8.20
2018-05-14T01:39:13.785Z,7.67
2018-05-14T01:41:41.181Z,8.27
2018-05-14T01:44:08.584Z,8.17
2018-05-14T01:46:35.971Z,7.20
2018-05-14T01:49:03.351Z,8.53
2018-05-14T01:51:30.744Z,9.17
2018-05-14T01:53:58.121Z,10.00
2018-05-14T01:56:25.513Z,11.27
2018-05-14T01:58:52.903Z,10.43
2018-05-14T02:01:20.315Z,10.60
2018-05-14T02:03:47.709Z,12.13
2018-05-14T02:06:15.110Z,10.07
2018-05-14T02:08:42.499Z,12.50
2018-05-14T02:11:10.800Z,12.40
2018-05-14T02:13:38.183Z,12.10
2018-05-14T02:16:05.592Z,12.00
2018-05-14T02:18:32.981Z,12.20
2018-05-14T02:21:00.363Z,12.13
2018-05-14T02:23:27.752Z,13.23
2018-05-14T02:25:55.149Z,13.93
2018-05-14T02:28:22.545Z,14.37
2018-05-14T02:30:49.928Z,13.93
2018-05-14T02:33:17.864Z,14.90
2018-05-14T02:35:45.266Z,16.10
2018-05-14T02:38:12.643Z,14.80
2018-05-14T02:40:40.046Z,13.77
2018-05-14T02:43:07.447Z,14.60
2018-05-14T02:45:34.852Z,15.47
2018-05-14T02:48:02.249Z,14.20
2018-05-14T02:50:29.654Z,14.90
2018-05-14T02:52:57.048Z,16.07
2018-05-14T02:55:24.437Z,14.80
2018-05-14T02:57:51.828Z,14.70
2018-05-14T03:00:19.207Z,14.97
2018-05-14T03:02:46.596Z,13.73
2018-05-14T03:05:13.973Z,15.80
2018-05-14T03:07:41.370Z,15.10
2018-05-14T03:10:08.759Z,14.53
2018-05-14T03:12:36.169Z,14.93
2018-05-14T03:15:03.566Z,16.70
2018-05-14T03:17:30.957Z,15.83
2018-05-14T03:19:58.347Z,16.47
2018-05-14T03:22:25.736Z,14.67
2018-05-14T03:24:53.132Z,16.07
2018-05-14T03:27:20.579Z,15.97
2018-05-14T03:29:47.968Z,16.80
2018-05-14T03:32:15.359Z,17.50
2018-05-14T03:34:42.744Z,15.97
2018-05-14T03:37:10.161Z,16.07
2018-05-14T03:39:37.555Z,18.40
2018-05-14T03:42:04.951Z,17.57
2018-05-14T03:44:32.324Z,16.80
2018-05-14T03:46:59.719Z,17.03
2018-05-14T03:49:27.120Z,18.40
2018-05-14T03:51:54.507Z,18.40
2018-05-14T03:54:21.909Z,17.10
2018-05-14T03:56:49.302Z,17.40
2018-05-14T03:59:28.330Z,17.30
2018-05-14T04:02:20.991Z,17.50
2018-05-14T04:05:00.212Z,17.27
2018-05-14T04:07:27.621Z,18.37
2018-05-14T04:09:55.028Z,17.57
2018-05-14T04:12:22.437Z,17.70
2018-05-14T04:14:49.839Z,17.13
2018-05-14T04:17:17.232Z,18.50
2018-05-14T04:19:44.616Z,18.97
2018-05-14T04:22:12.003Z,21.50
2018-05-14T04:24:39.387Z,19.27
2018-05-14T04:27:06.777Z,18.87
2018-05-14T04:29:34.164Z,17.50
2018-05-14T04:32:01.553Z,20.30
2018-05-14T04:34:28.962Z,18.27
2018-05-14T04:36:56.345Z,17.87
2018-05-14T04:39:23.830Z,18.53
2018-05-14T04:41:51.232Z,16.87
2018-05-14T04:44:18.617Z,18.13
2018-05-14T04:46:46.906Z,17.57
2018-05-14T04:49:14.297Z,18.73
2018-05-14T04:51:41.679Z,18.80
2018-05-14T04:54:09.073Z,17.50
2018-05-14T04:56:36.507Z,17.60
2018-05-14T04:59:03.921Z,16.60
2018-05-14T05:01:31.325Z,17.33
2018-05-14T05:03:58.703Z,17.17
2018-05-14T05:06:26.100Z,19.10
2018-05-14T05:08:53.532Z,17.37
2018-05-14T05:11:21.043Z,16.43
2018-05-14T05:13:48.427Z,17.70
2018-05-14T05:16:15.809Z,15.67
2018-05-14T05:18:43.228Z,15.53
2018-05-14T05:21:11.271Z,15.00
2018-05-14T05:23:38.659Z,17.30
2018-05-14T05:26:06.053Z,15.93
2018-05-14T05:28:33.439Z,15.50
2018-05-14T05:31:00.830Z,17.57
2018-05-14T05:33:28.217Z,16.40
2018-05-14T05:38:29.431Z,15.40
2018-05-14T05:40:56.816Z,15.87
2018-05-14T05:43:24.226Z,16.17
2018-05-14T05:45:51.611Z,16.57
2018-05-14T05:48:19.017Z,16.50
2018-05-14T05:50:46.404Z,15.67
2018-05-14T05:53:13.792Z,15.10
2018-05-14T05:55:41.191Z,15.00
2018-05-14T05:58:08.584Z,16.17
2018-05-14T06:00:35.992Z,15.50
2018-05-14T06:03:03.367Z,14.77
2018-05-14T06:05:30.767Z,14.90
2018-05-14T06:07:58.166Z,17.50
2018-05-14T06:10:25.552Z,17.43
2018-05-14T06:12:52.939Z,15.00
2018-05-14T06:15:20.339Z,16.30
2018-05-14T06:17:47.743Z,15.00
2018-05-14T06:20:15.139Z,13.90
2018-05-14T06:22:42.546Z,14.83
2018-05-14T06:25:09.931Z,14.87
2018-05-14T06:27:37.319Z,15.33
2018-05-14T06:30:04.712Z,14.33
2018-05-14T06:32:32.190Z,14.40
2018-05-14T06:34:59.587Z,14.00
2018-05-14T06:37:26.976Z,13.70
2018-05-14T06:39:54.373Z,13.17
2018-05-14T06:42:21.776Z,13.30
2018-05-14T06:44:49.176Z,12.77
2018-05-14T06:47:16.640Z,14.13
2018-05-14T06:49:44.119Z,14.90
2018-05-14T06:52:11.416Z,14.87
2018-05-14T06:54:38.803Z,14.30
2018-05-14T06:57:06.197Z,14.13
2018-05-14T06:59:33.579Z,14.50
2018-05-14T07:02:00.959Z,14.00
2018-05-14T07:04:28.370Z,12.70
2018-05-14T07:06:55.803Z,14.13
2018-05-14T07:09:23.231Z,12.83
2018-05-14T07:11:50.605Z,12.17
2018-05-14T07:14:17.998Z,13.53
2018-05-14T07:16:45.387Z,12.10
2018-05-14T07:19:12.856Z,11.90
2018-05-14T07:21:40.166Z,12.30
2018-05-14T07:24:07.562Z,11.40
2018-05-14T07:26:34.959Z,10.97
2018-05-14T07:29:02.510Z,10.70
2018-05-14T07:31:29.908Z,11.50
2018-05-14T07:33:57.316Z,12.90
2018-05-14T07:36:24.707Z,12.10
2018-05-14T07:38:52.111Z,11.83
2018-05-14T07:41:19.504Z,10.93
2018-05-14T07:43:46.907Z,10.80
2018-05-14T07:46:14.298Z,10.63
2018-05-14T07:48:41.693Z,11.37
2018-05-14T07:51:09.071Z,10.27
2018-05-14T07:53:36.515Z,9.80
2018-05-14T07:56:03.899Z,10.50
2018-05-14T07:58:31.308Z,10.80
2018-05-14T08:00:58.689Z,10.67
2018-05-14T08:03:26.087Z,11.30
2018-05-14T08:05:53.467Z,11.70
2018-05-14T08:08:20.863Z,11.30
2018-05-14T08:10:48.253Z,10.50
2018-05-14T08:13:15.652Z,10.63
2018-05-14T08:15:43.064Z,10.30
2018-05-14T08:18:10.452Z,10.03
2018-05-14T08:20:37.840Z,11.20
2018-05-14T08:23:05.227Z,11.80
2018-05-14T08:25:32.613Z,11.27
2018-05-14T08:27:59.995Z,10.60
2018-05-14T08:30:27.387Z,10.27
2018-05-14T08:32:54.788Z,10.80
2018-05-14T08:35:22.177Z,8.23
2018-05-14T08:37:49.579Z,8.97
2018-05-14T08:40:16.963Z,8.13
2018-05-14T08:42:44.373Z,9.33
2018-05-14T08:45:11.765Z,8.87
2018-05-14T08:47:39.151Z,9.07
2018-05-14T08:50:06.545Z,7.77
2018-05-14T08:52:33.930Z,8.37
2018-05-14T08:55:01.316Z,10.53
2018-05-14T08:57:28.718Z,10.13
2018-05-14T08:59:56.108Z,9.97
2018-05-14T09:02:23.495Z,11.30
2018-05-14T09:04:50.905Z,10.00
2018-05-14T09:07:18.276Z,11.13
2018-05-14T09:09:45.680Z,9.70
2018-05-14T09:12:13.061Z,9.60
2018-05-14T09:14:40.462Z,9.47
2018-05-14T09:17:07.852Z,10.50
2018-05-14T09:19:35.361Z,10.67
2018-05-14T09:22:02.634Z,12.30
2018-05-14T09:24:30.040Z,10.70
2018-05-14T09:26:57.420Z,9.93
2018-05-14T09:29:24.827Z,11.33
2018-05-14T09:31:52.605Z,10.30
2018-05-14T09:34:19.993Z,11.23
2018-05-14T09:36:47.376Z,11.00
2018-05-14T09:39:14.797Z,12.63
2018-05-14T09:41:42.195Z,13.00
2018-05-14T09:44:09.589Z,13.50
2018-05-14T09:46:36.993Z,12.93
2018-05-14T09:49:04.400Z,14.10
2018-05-14T09:51:31.796Z,13.97
2018-05-14T09:53:59.191Z,14.80
2018-05-14T09:56:26.578Z,13.73
2018-05-14T09:58:53.967Z,14.90
2018-05-14T10:01:21.351Z,15.67
2018-05-14T10:03:48.750Z,13.37
2018-05-14T10:06:16.139Z,14.30
2018-05-14T10:08:43.536Z,14.80
2018-05-14T10:11:10.934Z,15.17
2018-05-14T10:13:38.936Z,14.43
2018-05-14T10:16:06.366Z,13.23
2018-05-14T10:18:33.755Z,11.00
2018-05-14T10:21:01.160Z,10.77
2018-05-14T10:23:28.555Z,9.67
2018-05-14T10:25:55.949Z,10.27
2018-05-14T10:28:23.344Z,10.23
2018-05-14T10:30:50.732Z,10.00
2018-05-14T10:33:18.197Z,9.73
2018-05-14T10:35:45.585Z,9.03
2018-05-14T10:38:12.960Z,8.90
2018-05-14T10:40:40.390Z,9.63
2018-05-14T10:43:07.745Z,9.00
2018-05-14T10:45:35.128Z,7.10
2018-05-14T10:48:02.518Z,7.53
2018-05-14T10:50:29.903Z,8.10
2018-05-14T10:52:57.299Z,7.80
2018-05-14T10:55:24.662Z,7.53
2018-05-14T10:57:52.039Z,7.33
2018-05-14T11:00:19.422Z,8.60
2018-05-14T11:02:47.002Z,8.60
2018-05-14T11:05:14.375Z,7.70
2018-05-14T11:07:41.844Z,8.37
2018-05-14T11:10:09.226Z,9.20
2018-05-14T11:12:36.604Z,8.60
2018-05-14T11:15:03.988Z,8.33
2018-05-14T11:17:31.388Z,10.17
2018-05-14T11:19:58.772Z,8.87
2018-05-14T11:22:26.154Z,9.20
2018-05-14T11:24:53.553Z,8.77
2018-05-14T11:27:21.821Z,8.97
2018-05-14T11:29:49.155Z,8.73
2018-05-14T11:32:16.540Z,8.67
2018-05-14T11:34:43.931Z,7.60
2018-05-14T11:37:11.311Z,9.10
2018-05-14T11:39:38.707Z,9.00
2018-05-14T11:42:06.091Z,8.90
2018-05-14T11:44:33.477Z,9.13
2018-05-14T11:47:00.854Z,8.13
2018-05-14T11:49:28.246Z,8.20
2018-05-14T11:51:55.616Z,8.83
2018-05-14T11:54:23.000Z,9.27
2018-05-14T11:56:50.396Z,8.50
2018-05-14T11:59:17.775Z,8.67
2018-05-14T12:01:45.155Z,8.97
2018-05-14T12:04:12.540Z,7.83
2018-05-14T12:06:39.934Z,7.97
2018-05-14T12:09:07.324Z,7.80
2018-05-14T12:11:34.703Z,7.77
2018-05-14T12:14:02.090Z,7.77
2018-05-14T12:16:30.416Z,7.30
2018-05-14T12:18:57.792Z,8.43
2018-05-14T12:21:25.172Z,7.50
2018-05-14T12:23:52.573Z,6.80
2018-05-14T12:26:19.957Z,7.70
2018-05-14T12:28:47.340Z,7.30
2018-05-14T12:31:14.732Z,7.30
2018-05-14T12:33:42.106Z,7.83
2018-05-14T12:36:09.509Z,7.60
2018-05-14T12:38:36.894Z,7.17
2018-05-14T12:41:04.275Z,8.00
2018-05-14T12:43:31.687Z,7.73
2018-05-14T12:45:59.125Z,7.00
2018-05-14T12:48:27.125Z,7.30
2018-05-14T12:50:54.524Z,7.10
2018-05-14T12:53:21.904Z,7.20
2018-05-14T12:55:49.299Z,7.40
2018-05-14T12:58:16.672Z,7.37
2018-05-14T13:00:44.059Z,6.60
2018-05-14T13:03:11.450Z,8.20
2018-05-14T13:05:39.659Z,6.13
2018-05-14T13:08:07.639Z,5.77
2018-05-14T13:10:35.027Z,6.80
2018-05-14T13:13:02.422Z,7.30
2018-05-14T13:15:31.529Z,6.03
2018-05-14T13:17:58.907Z,7.13
2018-05-14T13:20:26.296Z,6.90
2018-05-14T13:22:54.195Z,6.50
2018-05-14T13:25:21.571Z,7.17
2018-05-14T13:27:48.960Z,9.10
2018-05-14T13:30:16.353Z,6.40
2018-05-14T13:32:43.748Z,6.73
2018-05-14T13:35:11.133Z,5.20
2018-05-14T13:37:38.663Z,5.40
2018-05-14T13:40:05.999Z,4.47
2018-05-14T13:42:33.403Z,3.77
2018-05-14T13:45:00.817Z,3.30
2018-05-14T13:47:28.228Z,4.20
2018-05-14T13:49:55.633Z,4.60
2018-05-14T13:52:23.007Z,6.37
2018-05-14T13:54:50.394Z,7.10
2018-05-14T13:57:17.809Z,6.83
2018-05-14T13:59:45.160Z,6.90
2018-05-14T14:02:12.539Z,7.03
2018-05-14T14:04:39.919Z,7.83
2018-05-14T14:07:07.304Z,7.90
2018-05-14T14:09:34.735Z,8.77
2018-05-14T14:12:02.113Z,9.07
2018-05-14T14:14:29.501Z,8.60
2018-05-14T14:16:57.004Z,8.90
2018-05-14T14:19:24.344Z,8.67
2018-05-14T14:21:51.723Z,9.07
2018-05-14T14:24:19.289Z,10.33
2018-05-14T14:26:46.509Z,9.17
2018-05-14T14:29:13.893Z,9.77
2018-05-14T14:31:41.276Z,9.90
2018-05-14T14:34:08.699Z,10.93
2018-05-14T14:36:36.104Z,9.60
2018-05-14T14:39:03.492Z,10.27
2018-05-14T14:41:30.880Z,11.40
2018-05-14T14:43:58.269Z,11.10
2018-05-14T14:46:25.713Z,10.50
2018-05-14T14:48:53.059Z,11.03
2018-05-14T14:51:20.447Z,11.47
2018-05-14T14:53:47.831Z,10.87
2018-05-14T14:56:15.230Z,10.50
2018-05-14T14:58:42.623Z,10.70
2018-05-14T15:01:10.016Z,11.07
2018-05-14T15:03:37.404Z,12.50
2018-05-14T15:06:04.814Z,12.00
2018-05-14T15:08:32.187Z,13.10
2018-05-14T15:10:59.577Z,9.33
2018-05-14T15:13:26.962Z,9.27
2018-05-14T15:15:54.352Z,7.47
2018-05-14T15:18:21.738Z,9.03
2018-05-14T15:20:49.128Z,9.17
2018-05-14T15:23:16.515Z,9.67
2018-05-14T15:25:43.905Z,11.10
2018-05-14T15:28:11.285Z,9.97
2018-05-14T15:30:38.679Z,9.90
2018-05-14T15:33:06.064Z,10.37
2018-05-14T15:35:33.451Z,10.20
2018-05-14T15:38:00.848Z,10.90
2018-05-14T15:40:28.236Z,11.90
2018-05-14T15:42:55.672Z,12.10
2018-05-14T15:45:23.052Z,11.40
2018-05-14T15:47:50.511Z,13.43
2018-05-14T15:50:17.884Z,14.07
2018-05-14T15:52:45.276Z,12.97
2018-05-14T15:55:12.671Z,13.00
2018-05-14T15:57:40.081Z,13.83
2018-05-14T16:00:07.475Z,13.50
2018-05-14T16:02:34.865Z,13.40
2018-05-14T16:05:02.283Z,12.57
2018-05-14T16:07:29.667Z,13.00
2018-05-14T16:09:57.109Z,11.10
2018-05-14T16:12:24.498Z,10.60
2018-05-14T16:14:51.899Z,10.70
2018-05-14T16:17:19.285Z,10.83
2018-05-14T16:19:46.679Z,11.00
2018-05-14T16:22:14.090Z,12.87
2018-05-14T16:24:41.482Z,14.40
2018-05-14T16:27:08.872Z,13.13
2018-05-14T16:29:36.260Z,12.10
2018-05-14T16:32:03.677Z,11.63
2018-05-14T16:34:31.063Z,12.23
2018-05-14T16:37:01.051Z,11.70
2018-05-14T16:39:40.972Z,12.10
2018-05-14T16:42:11.265Z,11.57
2018-05-14T16:44:40.208Z,13.27
2018-05-14T16:47:11.444Z,12.87
2018-05-14T16:49:40.811Z,13.70
2018-05-14T16:52:11.198Z,13.47
2018-05-14T16:54:42.172Z,12.57
2018-05-14T16:57:11.257Z,12.10
2018-05-14T16:59:38.831Z,12.40
2018-05-14T17:02:09.917Z,12.50
2018-05-14T17:22:42.309Z,7.57
2018-05-14T17:25:23.629Z,7.10
2018-05-14T17:27:51.605Z,3.60
2018-05-14T17:30:19.010Z,4.67
2018-05-14T17:32:46.364Z,3.27
2018-05-14T17:35:13.755Z,4.03
2018-05-14T17:37:41.127Z,3.73
2018-05-14T17:40:08.512Z,3.00
2018-05-14T17:42:36.229Z,3.33
2018-05-14T17:45:03.613Z,3.40
2018-05-14T17:47:30.991Z,3.63
2018-05-14T17:49:58.379Z,3.07
2018-05-14T17:52:25.776Z,3.20
2018-05-14T17:54:53.238Z,3.13
2018-05-14T17:57:20.600Z,3.20
2018-05-14T17:59:48.025Z,3.33
2018-05-14T18:02:15.411Z,3.87
2018-05-14T18:04:42.803Z,3.30
2018-05-14T18:07:10.195Z,3.20
2018-05-14T18:09:37.567Z,2.90
2018-05-14T18:12:04.951Z,2.87
2018-05-14T18:14:32.368Z,2.50
2018-05-14T18:17:01.043Z,2.73
2018-05-14T18:19:29.382Z,2.73
2018-05-14T18:22:02.362Z,2.90
2018-05-14T18:24:29.739Z,3.67
2018-05-14T18:26:57.127Z,2.30
2018-05-14T18:29:30.438Z,2.23
2018-05-14T18:31:57.823Z,2.70
2018-05-14T18:34:30.819Z,3.97
2018-05-14T18:36:58.201Z,1.90
2018-05-14T18:39:25.575Z,2.23
2018-05-14T18:41:52.955Z,2.17
2018-05-14T18:44:34.757Z,2.70
2018-05-14T18:47:02.147Z,3.20
2018-05-14T18:49:29.518Z,2.00
2018-05-14T18:51:56.928Z,2.60
2018-05-14T18:54:24.307Z,2.63
2018-05-14T18:56:51.951Z,2.47
2018-05-14T18:59:21.780Z,2.93
2018-05-14T19:01:49.169Z,2.50
2018-05-14T19:04:16.553Z,2.43
2018-05-14T19:06:43.948Z,2.60
2018-05-14T19:09:11.360Z,2.93
2018-05-14T19:11:44.479Z,2.77
2018-05-14T19:14:11.849Z,2.60
2018-05-14T19:16:44.824Z,3.17
2018-05-14T19:19:12.212Z,2.70
2018-05-14T19:21:39.608Z,2.87
2018-05-14T19:24:06.987Z,2.77
2018-05-14T19:26:34.369Z,2.50
2018-05-14T19:29:07.428Z,2.50
2018-05-14T19:31:34.811Z,3.37
2018-05-14T19:34:07.649Z,2.57
2018-05-14T19:36:35.036Z,2.50
2018-05-14T19:39:02.419Z,2.50
2018-05-14T19:41:29.864Z,2.70
2018-05-14T19:43:57.196Z,2.90
2018-05-14T19:46:24.622Z,3.30
2018-05-14T19:48:52.015Z,2.30
2018-05-14T19:51:19.423Z,2.53
2018-05-14T19:53:46.812Z,2.60
2018-05-14T19:56:14.178Z,2.60
2018-05-14T19:58:41.587Z,2.83
2018-05-14T20:01:08.965Z,2.23
2018-05-14T20:03:36.357Z,2.70
2018-05-14T20:06:03.744Z,2.70
2018-05-14T20:08:31.151Z,2.73
2018-05-14T20:10:58.527Z,2.80
2018-05-14T20:13:25.916Z,2.40
2018-05-14T20:15:53.287Z,2.50
2018-05-14T20:18:20.698Z,2.77
2018-05-14T20:20:48.079Z,2.53
2018-05-14T20:23:15.471Z,2.23
2018-05-14T20:25:42.862Z,2.40
2018-05-14T20:28:10.263Z,3.00
2018-05-14T20:30:37.643Z,2.80
2018-05-14T20:33:05.051Z,3.50
2018-05-14T20:35:32.443Z,2.90
2018-05-14T20:37:59.844Z,2.60
2018-05-14T20:40:27.221Z,2.90
2018-05-14T20:42:54.631Z,3.13
2018-05-14T20:45:22.009Z,2.77
2018-05-14T20:47:49.402Z,2.60
2018-05-14T20:50:16.778Z,3.20
2018-05-14T20:52:44.171Z,2.27
2018-05-14T20:55:11.555Z,2.90
2018-05-14T20:57:38.936Z,2.73
2018-05-14T21:00:06.319Z,2.40
2018-05-14T21:02:33.711Z,2.67
2018-05-14T21:05:01.092Z,2.03
2018-05-14T21:07:28.484Z,2.60
2018-05-14T21:09:55.928Z,2.60
2018-05-14T21:12:23.344Z,2.80
2018-05-14T21:14:52.259Z,2.53
2018-05-14T21:17:19.588Z,2.80
2018-05-14T21:19:47.192Z,2.40
2018-05-14T21:22:15.506Z,2.63
2018-05-14T21:24:42.989Z,2.13
2018-05-14T21:27:12.089Z,2.87
2018-05-14T21:29:40.018Z,2.57
2018-05-14T21:32:07.764Z,2.63
2018-05-14T21:34:35.158Z,2.17
2018-05-14T21:37:07.822Z,2.10
2018-05-14T21:39:35.288Z,2.10
2018-05-14T21:42:02.722Z,2.20
2018-05-14T21:44:30.865Z,2.90
2018-05-14T21:47:03.209Z,2.60
2018-05-14T21:49:31.530Z,3.00
2018-05-14T21:52:00.879Z,2.30
2018-05-14T21:54:29.756Z,2.60
2018-05-14T21:57:01.424Z,2.53
2018-05-14T21:59:29.725Z,2.47
2018-05-14T22:02:06.974Z,2.47
2018-05-14T22:04:35.604Z,2.77
2018-05-14T22:07:10.402Z,2.73
2018-05-14T22:09:40.783Z,2.47
2018-05-14T22:12:09.575Z,2.50
2018-05-14T22:14:43.202Z,2.10
2018-05-14T22:17:12.540Z,1.97
2018-05-14T22:19:42.477Z,2.90
2018-05-14T22:22:13.383Z,2.70
2018-05-14T22:24:47.721Z,2.30
2018-05-14T22:27:16.535Z,3.00
2018-05-14T22:29:48.208Z,2.27
2018-05-14T22:32:17.786Z,2.60
2018-05-14T22:34:49.158Z,1.80
2018-05-14T22:37:16.772Z,2.87
2018-05-14T22:39:47.271Z,2.80
2018-05-14T22:42:16.963Z,2.53
2018-05-14T22:44:46.774Z,2.63
2018-05-14T22:47:17.455Z,2.37
2018-05-14T22:49:46.331Z,2.87
2018-05-14T22:52:20.492Z,2.80
2018-05-14T22:54:51.693Z,2.87
2018-05-14T22:57:23.828Z,2.97
2018-05-14T22:59:52.597Z,2.70
2018-05-14T23:02:21.474Z,2.43
2018-05-14T23:04:50.701Z,2.23
2018-05-14T23:07:26.020Z,2.17
2018-05-14T23:09:55.054Z,3.07
2018-05-14T23:12:24.882Z,2.50
2018-05-14T23:14:53.763Z,2.30
2018-05-14T23:17:32.625Z,2.70
2018-05-14T23:20:02.318Z,2.50
2018-05-14T23:22:41.999Z,2.93
2018-05-14T23:25:10.874Z,2.40
2018-05-14T23:27:39.980Z,2.70
2018-05-14T23:30:11.653Z,2.53
2018-05-14T23:32:42.561Z,3.20
2018-05-14T23:35:13.651Z,2.53
2018-05-14T23:37:41.061Z,2.63
2018-05-14T23:40:08.480Z,3.20
2018-05-14T23:42:35.892Z,2.70
2018-05-14T23:45:03.281Z,2.37
2018-05-14T23:47:30.687Z,2.63
2018-05-14T23:49:58.088Z,2.53
2018-05-14T23:52:25.467Z,2.50
2018-05-14T23:54:52.871Z,2.57
2018-05-14T23:57:20.285Z,2.67
2018-05-14T23:59:47.729Z,2.70
